createdAt,value
2018-11-28T00:00:09.904Z,0.85
2018-11-28T00:01:09.629Z,0.86
2018-11-28T00:02:09.861Z,0.96
2018-11-28T00:03:10.078Z,0.89
2018-11-28T00:04:10.058Z,0.83
2018-11-28T00:05:09.525Z,0.96
2018-11-28T00:06:09.755Z,0.9
2018-11-28T00:07:09.726Z,0.8
2018-11-28T00:08:09.707Z,0.83
2018-11-28T00:09:09.685Z,0.8
2018-11-28T00:10:09.917Z,0.85
2018-11-28T00:11:09.653Z,0.83
2018-11-28T00:12:09.868Z,0.7
2018-11-28T00:13:09.323Z,0.72
2018-11-28T00:14:09.814Z,0.78
2018-11-28T00:15:09.821Z,0.75
2018-11-28T00:16:09.507Z,0.67
2018-11-28T00:17:09.485Z,0.65
2018-11-28T00:18:09.463Z,0.7
2018-11-28T00:19:09.439Z,0.68
2018-11-28T00:20:09.686Z,0.7
2018-11-28T00:21:09.651Z,0.67
2018-11-28T00:22:09.369Z,0.67
2018-11-28T00:23:09.344Z,0.67
2018-11-28T00:24:09.324Z,0.68
2018-11-28T00:25:09.555Z,0.67
2018-11-28T00:26:09.302Z,0.64
2018-11-28T00:27:09.499Z,0.62
2018-11-28T00:28:08.970Z,0.64
2018-11-28T00:29:09.466Z,0.58
2018-11-28T00:30:09.428Z,0.65
2018-11-28T00:31:09.150Z,0.6
2018-11-28T00:32:09.375Z,0.6
2018-11-28T00:33:09.365Z,0.58
2018-11-28T00:34:09.088Z,0.62
2018-11-28T00:35:09.343Z,0.6
2018-11-28T00:36:09.287Z,0.58
2018-11-28T00:37:09.259Z,0.6
2018-11-28T00:38:08.988Z,0.51
2018-11-28T00:39:09.217Z,0.53
2018-11-28T00:40:09.193Z,0.58
2018-11-28T00:41:09.175Z,0.57
2018-11-28T00:42:08.895Z,0.58
2018-11-28T00:43:08.867Z,0.43
2018-11-28T00:44:09.094Z,0.53
2018-11-28T00:45:08.571Z,0.51
2018-11-28T00:46:09.116Z,0.51
2018-11-28T00:47:09.034Z,0.48
2018-11-28T00:48:08.496Z,0.52
2018-11-28T00:49:08.468Z,0.58
2018-11-28T00:50:08.951Z,0.52
2018-11-28T00:51:08.681Z,0.46
2018-11-28T00:52:08.916Z,0.46
2018-11-28T00:53:08.882Z,0.43
2018-11-28T00:54:08.605Z,0.45
2018-11-28T00:55:08.582Z,0.49
2018-11-28T00:56:08.560Z,0.49
2018-11-28T00:57:08.533Z,0.52
2018-11-28T00:58:08.760Z,0.39
2018-11-28T00:59:08.484Z,0.41
2018-11-28T01:00:08.472Z,0.46
2018-11-28T01:01:08.178Z,0.39
2018-11-28T01:02:08.409Z,0.42
2018-11-28T01:03:08.129Z,0.43
2018-11-28T01:04:08.411Z,0.34
2018-11-28T01:05:08.117Z,0.34
2018-11-28T01:06:08.592Z,0.45
2018-11-28T01:07:08.294Z,0.45
2018-11-28T01:08:08.519Z,0.41
2018-11-28T01:09:08.499Z,0.42
2018-11-28T01:10:08.512Z,0.39
2018-11-28T01:11:08.192Z,0.36
2018-11-28T01:12:08.428Z,0.42
2018-11-28T01:13:08.154Z,0.39
2018-11-28T01:14:08.130Z,0.34
2018-11-28T01:15:08.376Z,0.34
2018-11-28T01:16:08.595Z,0.39
2018-11-28T01:17:08.336Z,0.36
2018-11-28T01:18:07.776Z,0.36
2018-11-28T01:19:08.274Z,0.33
2018-11-28T01:20:08.234Z,0.33
2018-11-28T01:21:08.243Z,0.34
2018-11-28T01:22:07.697Z,0.31
2018-11-28T01:23:08.164Z,0.33
2018-11-28T01:24:08.146Z,0.28
2018-11-28T01:25:08.132Z,0.28
2018-11-28T01:26:08.159Z,0.3
2018-11-28T01:27:07.569Z,0.28
2018-11-28T01:28:08.042Z,0.27
2018-11-28T01:29:08.030Z,0.33
2018-11-28T01:30:07.511Z,0.25
2018-11-28T01:31:07.971Z,0.28
2018-11-28T01:32:07.989Z,0.27
2018-11-28T01:33:07.946Z,0.3
2018-11-28T01:34:07.643Z,0.31
2018-11-28T01:35:07.621Z,0.31
2018-11-28T01:36:07.876Z,0.33
2018-11-28T01:37:07.851Z,0.28
2018-11-28T01:38:07.552Z,0.41
2018-11-28T01:39:07.523Z,0.33
2018-11-28T01:40:07.762Z,0.33
2018-11-28T01:41:07.736Z,0.3
2018-11-28T01:42:07.199Z,0.3
2018-11-28T01:43:07.437Z,0.34
2018-11-28T01:44:07.657Z,0.33
2018-11-28T01:45:07.385Z,0.27
2018-11-28T01:46:07.361Z,0.34
2018-11-28T01:47:07.591Z,0.3
2018-11-28T01:48:07.567Z,0.3
2018-11-28T01:49:07.038Z,0.27
2018-11-28T01:50:07.522Z,0.33
2018-11-28T01:51:07.243Z,0.3
2018-11-28T01:52:07.213Z,0.3
2018-11-28T01:53:07.458Z,0.24
2018-11-28T01:54:07.420Z,0.41
2018-11-28T01:55:06.913Z,0.25
2018-11-28T01:56:07.481Z,0.36
2018-11-28T01:57:07.087Z,0.25
2018-11-28T01:58:07.081Z,0.36
2018-11-28T01:59:07.095Z,0.36
2018-11-28T02:00:07.280Z,0.27
2018-11-28T02:01:07.001Z,0.31
2018-11-28T02:02:06.723Z,0.3
2018-11-28T02:03:06.951Z,0.33
2018-11-28T02:04:06.928Z,0.31
2018-11-28T02:05:06.902Z,0.33
2018-11-28T02:06:06.621Z,0.31
2018-11-28T02:07:06.859Z,0.36
2018-11-28T02:08:07.089Z,0.33
2018-11-28T02:09:06.805Z,0.34
2018-11-28T02:10:07.041Z,0.39
2018-11-28T02:11:06.777Z,0.3
2018-11-28T02:12:06.734Z,0.46
2018-11-28T02:13:06.957Z,0.34
2018-11-28T02:14:06.682Z,0.33
2018-11-28T02:15:06.664Z,0.38
2018-11-28T02:16:06.711Z,0.41
2018-11-28T02:17:06.866Z,0.41
2018-11-28T02:18:06.642Z,0.31
2018-11-28T02:19:06.568Z,0.43
2018-11-28T02:20:06.624Z,0.46
2018-11-28T02:21:06.834Z,0.39
2018-11-28T02:22:06.745Z,0.51
2018-11-28T02:23:06.467Z,0.52
2018-11-28T02:24:06.703Z,0.43
2018-11-28T02:25:06.678Z,0.49
2018-11-28T02:26:06.402Z,0.41
2018-11-28T02:27:06.374Z,0.52
2018-11-28T02:28:06.345Z,0.53
2018-11-28T02:29:06.327Z,0.52
2018-11-28T02:30:06.363Z,0.6
2018-11-28T02:31:06.544Z,0.58
2018-11-28T02:32:06.276Z,0.51
2018-11-28T02:33:06.486Z,0.53
2018-11-28T02:34:06.465Z,0.57
2018-11-28T02:35:06.188Z,0.61
2018-11-28T02:36:06.166Z,0.49
2018-11-28T02:37:05.886Z,0.49
2018-11-28T02:38:06.116Z,0.64
2018-11-28T02:39:06.082Z,0.65
2018-11-28T02:40:06.073Z,0.62
2018-11-28T02:41:06.041Z,0.65
2018-11-28T02:42:06.033Z,0.68
2018-11-28T02:43:06.246Z,0.61
2018-11-28T02:44:05.994Z,0.64
2018-11-28T02:45:05.949Z,0.62
2018-11-28T02:46:06.181Z,0.7
2018-11-28T02:47:05.892Z,0.67
2018-11-28T02:48:06.156Z,0.65
2018-11-28T02:49:06.104Z,0.75
2018-11-28T02:50:06.107Z,0.64
2018-11-28T02:51:05.843Z,0.78
2018-11-28T02:52:05.777Z,0.71
2018-11-28T02:53:06.019Z,0.76
2018-11-28T02:54:06.022Z,0.78
2018-11-28T02:55:05.729Z,0.71
2018-11-28T02:56:05.703Z,0.67
2018-11-28T02:57:05.919Z,0.8
2018-11-28T02:58:05.377Z,0.79
2018-11-28T02:59:05.884Z,0.86
2018-11-28T03:00:05.602Z,0.83
2018-11-28T03:01:05.558Z,0.83
2018-11-28T03:02:05.811Z,0.82
2018-11-28T03:03:05.791Z,0.86
2018-11-28T03:04:05.559Z,0.85
2018-11-28T03:05:05.797Z,0.86
2018-11-28T03:06:05.697Z,0.83
2018-11-28T03:07:05.439Z,0.85
2018-11-28T03:08:05.419Z,0.9
2018-11-28T03:09:05.703Z,0.82
2018-11-28T03:10:05.616Z,0.8
2018-11-28T03:11:05.580Z,0.96
2018-11-28T03:12:05.564Z,0.94
2018-11-28T03:13:05.552Z,0.9
2018-11-28T03:14:05.638Z,1.01
2018-11-28T03:15:05.234Z,0.89
2018-11-28T03:16:05.664Z,0.92
2018-11-28T03:17:05.446Z,0.97
2018-11-28T03:18:05.163Z,0.98
2018-11-28T03:19:05.409Z,0.98
2018-11-28T03:20:05.395Z,0.92
2018-11-28T03:21:05.087Z,0.97
2018-11-28T03:22:05.315Z,0.98
2018-11-28T03:23:05.048Z,0.94
2018-11-28T03:24:05.019Z,0.98
2018-11-28T03:25:05.247Z,1.06
2018-11-28T03:26:04.969Z,0.94
2018-11-28T03:27:04.696Z,0.96
2018-11-28T03:28:05.175Z,0.94
2018-11-28T03:29:04.639Z,0.92
2018-11-28T03:30:05.132Z,0.94
2018-11-28T03:31:04.855Z,0.9
2018-11-28T03:32:05.121Z,1.04
2018-11-28T03:33:05.178Z,1.01
2018-11-28T03:34:04.520Z,0.9
2018-11-28T03:35:05.062Z,0.92
2018-11-28T03:36:04.987Z,0.97
2018-11-28T03:37:04.719Z,0.92
2018-11-28T03:38:04.935Z,0.98
2018-11-28T03:39:04.668Z,0.98
2018-11-28T03:40:04.376Z,0.96
2018-11-28T03:41:04.870Z,0.92
2018-11-28T03:42:04.839Z,0.98
2018-11-28T03:43:04.812Z,0.94
2018-11-28T03:44:04.536Z,0.9
2018-11-28T03:45:04.792Z,0.96
2018-11-28T03:46:04.493Z,1.03
2018-11-28T03:47:04.718Z,0.94
2018-11-28T03:48:04.186Z,0.97
2018-11-28T03:49:04.178Z,0.86
2018-11-28T03:50:04.659Z,0.92
2018-11-28T03:51:05.353Z,0.94
2018-11-28T03:52:04.347Z,0.92
2018-11-28T03:53:04.633Z,0.9
2018-11-28T03:54:04.310Z,0.82
2018-11-28T03:55:04.538Z,0.83
2018-11-28T03:56:04.255Z,0.86
2018-11-28T03:57:04.493Z,0.88
2018-11-28T03:58:04.461Z,0.78
2018-11-28T03:59:04.184Z,0.88
2018-11-28T04:00:04.167Z,0.89
2018-11-28T04:01:04.397Z,0.85
2018-11-28T04:02:04.112Z,0.86
2018-11-28T04:03:04.354Z,0.86
2018-11-28T04:04:04.074Z,0.88
2018-11-28T04:05:04.037Z,0.83
2018-11-28T04:06:04.282Z,0.82
2018-11-28T04:07:04.002Z,0.9
2018-11-28T04:08:04.013Z,0.9
2018-11-28T04:09:04.267Z,0.8
2018-11-28T04:10:04.177Z,0.88
2018-11-28T04:11:03.911Z,0.83
2018-11-28T04:12:04.155Z,0.88
2018-11-28T04:13:03.858Z,0.8
2018-11-28T04:14:04.091Z,0.86
2018-11-28T04:15:03.809Z,0.83
2018-11-28T04:16:04.032Z,0.79
2018-11-28T04:17:03.758Z,0.79
2018-11-28T04:18:03.752Z,0.82
2018-11-28T04:19:04.016Z,0.76
2018-11-28T04:20:04.015Z,0.89
2018-11-28T04:21:03.457Z,0.76
2018-11-28T04:22:03.660Z,0.85
2018-11-28T04:23:03.861Z,0.86
2018-11-28T04:24:03.365Z,0.79
2018-11-28T04:25:03.320Z,0.76
2018-11-28T04:26:03.798Z,0.86
2018-11-28T04:27:03.528Z,0.9
2018-11-28T04:28:03.242Z,0.85
2018-11-28T04:29:03.214Z,0.83
2018-11-28T04:30:03.525Z,0.78
2018-11-28T04:31:03.421Z,0.82
2018-11-28T04:32:03.650Z,0.86
2018-11-28T04:33:03.379Z,0.82
2018-11-28T04:34:03.661Z,0.89
2018-11-28T04:35:03.591Z,0.96
2018-11-28T04:36:03.309Z,0.94
2018-11-28T04:37:03.282Z,0.88
2018-11-28T04:38:03.517Z,0.94
2018-11-28T04:39:03.251Z,0.89
2018-11-28T04:40:03.473Z,0.96
2018-11-28T04:41:03.196Z,0.98
2018-11-28T04:42:03.152Z,1.07
2018-11-28T04:43:03.157Z,1.06
2018-11-28T04:44:03.121Z,1.04
2018-11-28T04:45:03.082Z,1.07
2018-11-28T04:46:02.816Z,1.03
2018-11-28T04:47:03.292Z,1.01
2018-11-28T04:48:03.026Z,1.06
2018-11-28T04:49:03.005Z,1.08
2018-11-28T04:50:03.246Z,1.1
2018-11-28T04:51:03.260Z,1.01
2018-11-28T04:52:03.182Z,1
2018-11-28T04:53:03.185Z,1.1
2018-11-28T04:54:03.170Z,1.03
2018-11-28T04:55:02.671Z,0.96
2018-11-28T04:56:02.836Z,1.03
2018-11-28T04:57:02.812Z,1
2018-11-28T04:58:03.042Z,1.04
2018-11-28T04:59:03.023Z,0.97
2018-11-28T05:00:02.815Z,1.1
2018-11-28T05:01:02.965Z,1.01
2018-11-28T05:02:02.991Z,1.04
2018-11-28T05:03:02.916Z,1.06
2018-11-28T05:04:02.651Z,1.07
2018-11-28T05:05:02.628Z,1.04
2018-11-28T05:06:02.845Z,1.06
2018-11-28T05:07:02.311Z,1.04
2018-11-28T05:08:02.605Z,1.04
2018-11-28T05:09:02.535Z,1.03
2018-11-28T05:10:02.577Z,1.07
2018-11-28T05:11:02.481Z,0.98
2018-11-28T05:12:02.702Z,1.03
2018-11-28T05:13:02.687Z,1.06
2018-11-28T05:14:02.399Z,1.03
2018-11-28T05:15:02.379Z,1.07
2018-11-28T05:16:02.554Z,1.04
2018-11-28T05:17:02.587Z,1.06
2018-11-28T05:18:02.570Z,1.08
2018-11-28T05:19:02.279Z,1.08
2018-11-28T05:20:02.511Z,1.12
2018-11-28T05:21:02.491Z,1.07
2018-11-28T05:22:02.462Z,1.1
2018-11-28T05:23:02.446Z,1.06
2018-11-28T05:24:02.170Z,1.14
2018-11-28T05:25:02.393Z,1.04
2018-11-28T05:26:02.368Z,1.08
2018-11-28T05:27:02.345Z,1
2018-11-28T05:28:02.327Z,1.06
2018-11-28T05:29:01.792Z,1.08
2018-11-28T05:30:01.791Z,1.15
2018-11-28T05:31:01.991Z,1.12
2018-11-28T05:32:01.993Z,1.12
2018-11-28T05:33:01.694Z,1.16
2018-11-28T05:34:01.929Z,1.16
2018-11-28T05:35:01.902Z,1.19
2018-11-28T05:36:01.897Z,1.25
2018-11-28T05:37:01.853Z,1.28
2018-11-28T05:38:01.830Z,1.18
2018-11-28T05:39:02.068Z,1.24
2018-11-28T05:40:01.790Z,1.18
2018-11-28T05:41:01.761Z,1.15
2018-11-28T05:42:01.737Z,1.21
2018-11-28T05:43:01.966Z,1.21
2018-11-28T05:44:01.694Z,1.25
2018-11-28T05:45:01.668Z,1.21
2018-11-28T05:46:01.902Z,1.19
2018-11-28T05:47:01.618Z,1.14
2018-11-28T05:48:01.594Z,1.21
2018-11-28T05:49:01.825Z,1.18
2018-11-28T05:50:01.549Z,1.16
2018-11-28T05:51:01.541Z,1.16
2018-11-28T05:52:01.765Z,1.15
2018-11-28T05:53:01.485Z,1.14
2018-11-28T05:54:01.483Z,1.15
2018-11-28T05:55:01.917Z,1.15
2018-11-28T05:56:01.658Z,1.15
2018-11-28T05:57:01.384Z,1.16
2018-11-28T05:58:01.378Z,1.03
2018-11-28T05:59:01.591Z,1.12
2018-11-28T06:00:01.062Z,1.12
2018-11-28T06:01:01.291Z,1.14
2018-11-28T06:02:01.266Z,1.16
2018-11-28T06:03:01.498Z,1.14
2018-11-28T06:04:01.214Z,1.12
2018-11-28T06:05:01.206Z,1.14
2018-11-28T06:06:01.439Z,1.15
2018-11-28T06:07:00.898Z,1.21
2018-11-28T06:08:01.144Z,1.16
2018-11-28T06:09:01.115Z,1.21
2018-11-28T06:10:01.085Z,1.19
2018-11-28T06:11:01.051Z,1.16
2018-11-28T06:12:01.026Z,1.18
2018-11-28T06:13:01.261Z,1.15
2018-11-28T06:14:01.240Z,1.21
2018-11-28T06:15:00.963Z,1.21
2018-11-28T06:16:01.247Z,1.18
2018-11-28T06:17:00.917Z,1.19
2018-11-28T06:18:01.152Z,1.18
2018-11-28T06:19:00.931Z,1.25
2018-11-28T06:20:00.856Z,1.29
2018-11-28T06:21:00.820Z,1.18
2018-11-28T06:22:01.048Z,1.34
2018-11-28T06:23:00.775Z,1.33
2018-11-28T06:24:00.778Z,1.33
2018-11-28T06:25:00.977Z,1.33
2018-11-28T06:26:00.996Z,1.32
2018-11-28T06:27:00.937Z,1.32
2018-11-28T06:28:00.657Z,1.26
2018-11-28T06:29:00.633Z,1.33
2018-11-28T06:30:00.617Z,1.4
2018-11-28T06:31:00.848Z,1.33
2018-11-28T06:32:00.561Z,1.33
2018-11-28T06:33:00.828Z,1.34
2018-11-28T06:34:00.782Z,1.42
2018-11-28T06:35:00.756Z,1.33
2018-11-28T06:36:00.783Z,1.37
2018-11-28T06:37:00.188Z,1.4
2018-11-28T06:38:00.499Z,1.37
2018-11-28T06:39:00.653Z,1.39
2018-11-28T06:40:00.644Z,1.37
2018-11-28T06:41:00.607Z,1.47
2018-11-28T06:42:00.338Z,1.5
2018-11-28T06:43:00.310Z,1.4
2018-11-28T06:44:00.283Z,1.46
2018-11-28T06:45:00.517Z,1.51
2018-11-28T06:46:00.504Z,1.52
2018-11-28T06:47:00.461Z,1.52
2018-11-28T06:48:00.187Z,1.58
2018-11-28T06:49:00.430Z,1.58
2018-11-28T06:50:00.163Z,1.62
2018-11-28T06:51:00.384Z,1.64
2018-11-28T06:52:00.361Z,1.64
2018-11-28T06:53:00.077Z,1.58
2018-11-28T06:54:00.040Z,1.64
2018-11-28T06:55:00.275Z,1.69
2018-11-28T06:56:00.256Z,1.79
2018-11-28T06:57:00.231Z,1.65
2018-11-28T06:58:00.216Z,1.78
2018-11-28T06:59:00.254Z,1.8
2018-11-28T06:59:59.972Z,1.83
2018-11-28T07:00:59.642Z,1.73
2018-11-28T07:01:59.604Z,1.75
2018-11-28T07:03:00.090Z,1.89
2018-11-28T07:03:59.559Z,1.82
2018-11-28T07:04:59.789Z,1.82
2018-11-28T07:05:59.765Z,1.79
2018-11-28T07:06:59.745Z,1.83
2018-11-28T07:07:59.724Z,1.82
2018-11-28T07:08:59.707Z,1.82
2018-11-28T07:09:59.423Z,1.9
2018-11-28T07:10:59.906Z,1.79
2018-11-28T07:11:59.632Z,1.8
2018-11-28T07:12:59.608Z,1.8
2018-11-28T07:13:59.839Z,1.93
2018-11-28T07:14:59.560Z,1.83
2018-11-28T07:16:00.042Z,1.82
2018-11-28T07:16:59.768Z,1.83
2018-11-28T07:17:59.485Z,1.9
2018-11-28T07:18:59.712Z,1.83
2018-11-28T07:19:59.698Z,1.87
2018-11-28T07:20:59.672Z,1.8
2018-11-28T07:21:59.648Z,1.89
2018-11-28T07:22:59.371Z,1.9
2018-11-28T07:23:59.404Z,1.83
2018-11-28T07:24:59.627Z,1.89
2018-11-28T07:25:59.553Z,1.87
2018-11-28T07:26:59.538Z,1.8
2018-11-28T07:27:59.263Z,1.91
2018-11-28T07:28:59.237Z,1.87
2018-11-28T07:29:59.206Z,1.83
2018-11-28T07:30:58.942Z,1.91
2018-11-28T07:31:59.010Z,1.94
2018-11-28T07:32:59.149Z,1.98
2018-11-28T07:33:59.116Z,1.87
2018-11-28T07:34:59.364Z,1.94
2018-11-28T07:35:59.328Z,2.02
2018-11-28T07:36:58.790Z,1.98
2018-11-28T07:37:59.028Z,1.91
2018-11-28T07:38:59.005Z,2.02
2018-11-28T07:39:59.236Z,2.12
2018-11-28T07:40:58.961Z,1.97
2018-11-28T07:41:58.935Z,2.1
2018-11-28T07:42:59.193Z,2.06
2018-11-28T07:43:58.938Z,2.12
2018-11-28T07:44:59.122Z,2.16
2018-11-28T07:45:58.584Z,2.12
2018-11-28T07:46:58.818Z,2.1
2018-11-28T07:47:58.795Z,2.12
2018-11-28T07:48:58.518Z,2.2
2018-11-28T07:49:59.005Z,2.2
2018-11-28T07:50:58.986Z,2.23
2018-11-28T07:51:58.453Z,2.31
2018-11-28T07:52:58.947Z,2.33
2018-11-28T07:53:58.944Z,2.31
2018-11-28T07:54:58.642Z,2.31
2018-11-28T07:55:58.867Z,2.33
2018-11-28T07:56:58.589Z,2.33
2018-11-28T07:57:58.573Z,2.41
2018-11-28T07:58:58.288Z,2.31
2018-11-28T07:59:58.772Z,2.4
2018-11-28T08:00:58.500Z,2.41
2018-11-28T08:01:58.525Z,2.37
2018-11-28T08:02:58.456Z,2.45
2018-11-28T08:03:58.430Z,2.44
2018-11-28T08:04:58.662Z,2.4
2018-11-28T08:05:58.639Z,2.51
2018-11-28T08:06:58.409Z,2.58
2018-11-28T08:07:58.345Z,2.58
2018-11-28T08:08:58.322Z,2.63
2018-11-28T08:09:58.561Z,2.61
2018-11-28T08:10:58.283Z,2.61
2018-11-28T08:11:58.255Z,2.63
2018-11-28T08:12:58.228Z,2.66
2018-11-28T08:13:58.516Z,2.64
2018-11-28T08:14:58.180Z,2.74
2018-11-28T08:15:58.411Z,2.69
2018-11-28T08:16:58.137Z,2.73
2018-11-28T08:17:58.119Z,2.69
2018-11-28T08:18:58.343Z,2.73
2018-11-28T08:19:58.326Z,2.76
2018-11-28T08:20:58.042Z,2.79
2018-11-28T08:21:57.770Z,2.88
2018-11-28T08:22:58.261Z,2.91
2018-11-28T08:23:57.985Z,2.91
2018-11-28T08:24:57.963Z,2.89
2018-11-28T08:25:58.019Z,2.97
2018-11-28T08:26:58.169Z,2.97
2018-11-28T08:27:58.235Z,3.09
2018-11-28T08:28:57.918Z,3.09
2018-11-28T08:29:57.585Z,3.13
2018-11-28T08:30:57.566Z,3.13
2018-11-28T08:31:57.801Z,3.07
2018-11-28T08:32:58.083Z,3.15
2018-11-28T08:33:57.788Z,3.18
2018-11-28T08:34:57.737Z,3.31
2018-11-28T08:35:57.969Z,3.25
2018-11-28T08:36:57.953Z,3.24
2018-11-28T08:37:57.667Z,3.3
2018-11-28T08:38:57.641Z,3.43
2018-11-28T08:39:57.626Z,3.34
2018-11-28T08:40:57.675Z,3.42
2018-11-28T08:41:57.324Z,3.43
2018-11-28T08:42:57.568Z,3.54
2018-11-28T08:43:57.783Z,3.54
2018-11-28T08:44:57.902Z,3.62
2018-11-28T08:45:57.240Z,3.52
2018-11-28T08:46:57.717Z,3.67
2018-11-28T08:47:57.462Z,3.78
2018-11-28T08:48:57.185Z,3.76
2018-11-28T08:49:57.408Z,3.8
2018-11-28T08:50:57.125Z,3.94
2018-11-28T08:51:57.362Z,3.97
2018-11-28T08:52:57.078Z,4.01
2018-11-28T08:53:57.583Z,4.03
2018-11-28T08:54:57.291Z,4.04
2018-11-28T08:55:57.306Z,4.07
2018-11-28T08:56:57.027Z,4.12
2018-11-28T08:57:57.324Z,4.25
2018-11-28T08:58:56.971Z,4.22
2018-11-28T08:59:57.439Z,4.25
2018-11-28T09:00:57.177Z,4.33
2018-11-28T09:01:56.893Z,4.42
2018-11-28T09:02:57.381Z,4.5
2018-11-28T09:03:57.100Z,4.51
2018-11-28T09:04:57.332Z,4.51
2018-11-28T09:05:57.313Z,4.57
2018-11-28T09:06:57.037Z,4.61
2018-11-28T09:07:56.768Z,4.7
2018-11-28T09:08:57.001Z,4.76
2018-11-28T09:09:57.231Z,4.73
2018-11-28T09:10:56.701Z,4.79
2018-11-28T09:11:56.930Z,4.73
2018-11-28T09:12:56.911Z,4.79
2018-11-28T09:13:57.136Z,4.89
2018-11-28T09:14:57.112Z,4.98
2018-11-28T09:15:57.093Z,4.91
2018-11-28T09:16:56.772Z,4.98
2018-11-28T09:17:57.062Z,5.09
2018-11-28T09:18:57.033Z,5.09
2018-11-28T09:19:56.789Z,5.2
2018-11-28T09:20:56.480Z,5.14
2018-11-28T09:21:56.972Z,5.16
2018-11-28T09:22:56.705Z,5.23
2018-11-28T09:23:56.677Z,5.23
2018-11-28T09:24:56.913Z,5.37
2018-11-28T09:25:56.635Z,5.3
2018-11-28T09:26:56.871Z,5.43
2018-11-28T09:27:56.846Z,5.41
2018-11-28T09:28:56.574Z,5.43
2018-11-28T09:29:56.804Z,5.43
2018-11-28T09:30:56.789Z,5.63
2018-11-28T09:31:56.255Z,5.5
2018-11-28T09:32:56.492Z,5.56
2018-11-28T09:33:56.722Z,5.63
2018-11-28T09:34:56.705Z,5.68
2018-11-28T09:35:56.487Z,5.68
2018-11-28T09:36:56.668Z,5.67
2018-11-28T09:37:56.388Z,5.66
2018-11-28T09:38:56.363Z,5.7
2018-11-28T09:39:56.344Z,5.75
2018-11-28T09:40:56.593Z,5.73
2018-11-28T09:41:56.611Z,5.82
2018-11-28T09:42:56.292Z,5.89
2018-11-28T09:43:56.522Z,5.89
2018-11-28T09:44:56.276Z,5.96
2018-11-28T09:45:56.481Z,6.03
2018-11-28T09:46:56.248Z,6.11
2018-11-28T09:47:56.439Z,6.18
2018-11-28T09:48:56.418Z,6.21
2018-11-28T09:49:56.144Z,6.21
2018-11-28T09:50:56.378Z,6.32
2018-11-28T09:51:56.370Z,6.22
2018-11-28T09:52:56.337Z,6.3
2018-11-28T09:53:56.077Z,6.28
2018-11-28T09:54:56.049Z,6.3
2018-11-28T09:55:56.027Z,6.33
2018-11-28T09:56:56.267Z,6.29
2018-11-28T09:57:55.744Z,6.29
2018-11-28T09:58:56.219Z,6.26
2018-11-28T09:59:55.688Z,6.46
2018-11-28T10:00:55.925Z,6.38
2018-11-28T10:01:55.662Z,6.43
2018-11-28T10:02:55.888Z,6.53
2018-11-28T10:03:55.875Z,6.44
2018-11-28T10:04:55.856Z,6.54
2018-11-28T10:05:55.831Z,6.54
2018-11-28T10:06:55.810Z,6.5
2018-11-28T10:07:55.797Z,6.62
2018-11-28T10:08:55.514Z,6.58
2018-11-28T10:09:56.003Z,6.58
2018-11-28T10:10:55.535Z,6.56
2018-11-28T10:11:55.711Z,6.63
2018-11-28T10:12:55.703Z,6.63
2018-11-28T10:13:55.675Z,6.72
2018-11-28T10:14:55.666Z,6.69
2018-11-28T10:15:55.891Z,6.76
2018-11-28T10:16:57.583Z,6.79
2018-11-28T10:17:55.605Z,6.8
2018-11-28T10:18:55.583Z,6.8
2018-11-28T10:19:55.597Z,6.83
2018-11-28T10:20:55.537Z,6.84
2018-11-28T10:21:55.780Z,6.84
2018-11-28T10:22:55.554Z,6.83
2018-11-28T10:23:55.481Z,6.84
2018-11-28T10:24:55.465Z,6.94
2018-11-28T10:25:55.719Z,6.9
2018-11-28T10:26:55.679Z,6.99
2018-11-28T10:27:55.721Z,6.87
2018-11-28T10:28:55.640Z,6.94
2018-11-28T10:29:55.631Z,6.84
2018-11-28T10:30:55.141Z,7.01
2018-11-28T10:31:55.614Z,6.95
2018-11-28T10:32:55.329Z,6.99
2018-11-28T10:33:55.284Z,6.97
2018-11-28T10:34:55.521Z,6.95
2018-11-28T10:35:55.502Z,6.94
2018-11-28T10:36:55.240Z,7.12
2018-11-28T10:37:55.473Z,7.13
2018-11-28T10:38:54.977Z,7.12
2018-11-28T10:39:55.444Z,7.17
2018-11-28T10:40:55.411Z,7.16
2018-11-28T10:41:55.403Z,7.16
2018-11-28T10:42:55.447Z,7.2
2018-11-28T10:43:55.098Z,7.16
2018-11-28T10:44:55.339Z,7.13
2018-11-28T10:45:55.316Z,7.2
2018-11-28T10:46:55.037Z,7.34
2018-11-28T10:47:55.273Z,7.31
2018-11-28T10:48:55.001Z,7.22
2018-11-28T10:49:54.734Z,7.22
2018-11-28T10:50:55.221Z,7.34
2018-11-28T10:51:55.243Z,7.31
2018-11-28T10:52:54.936Z,7.27
2018-11-28T10:53:55.248Z,7.35
2018-11-28T10:54:54.890Z,7.37
2018-11-28T10:55:54.870Z,7.34
2018-11-28T10:56:55.461Z,7.4
2018-11-28T10:57:54.844Z,7.41
2018-11-28T10:58:55.078Z,7.49
2018-11-28T10:59:54.792Z,7.5
2018-11-28T11:00:55.039Z,7.5
2018-11-28T11:01:54.772Z,7.55
2018-11-28T11:02:55.042Z,7.62
2018-11-28T11:03:54.974Z,7.63
2018-11-28T11:04:54.986Z,7.71
2018-11-28T11:05:54.937Z,7.74
2018-11-28T11:06:54.914Z,7.77
2018-11-28T11:07:54.717Z,7.75
2018-11-28T11:08:54.640Z,7.77
2018-11-28T11:09:54.861Z,7.71
2018-11-28T11:10:54.891Z,7.74
2018-11-28T11:11:54.567Z,7.81
2018-11-28T11:12:54.344Z,7.77
2018-11-28T11:13:54.533Z,7.75
2018-11-28T11:14:54.515Z,7.82
2018-11-28T11:15:54.501Z,7.92
2018-11-28T11:16:54.932Z,7.85
2018-11-28T11:17:54.200Z,7.85
2018-11-28T11:18:54.687Z,7.87
2018-11-28T11:19:54.676Z,7.9
2018-11-28T11:20:54.667Z,8.03
2018-11-28T11:21:54.644Z,8.04
2018-11-28T11:22:54.623Z,8.07
2018-11-28T11:23:54.344Z,8
2018-11-28T11:24:54.578Z,7.99
2018-11-28T11:25:54.627Z,8.14
2018-11-28T11:26:54.281Z,8.11
2018-11-28T11:27:54.524Z,8.21
2018-11-28T11:28:54.245Z,8.15
2018-11-28T11:29:54.492Z,8.15
2018-11-28T11:30:54.484Z,8.2
2018-11-28T11:31:54.466Z,8.28
2018-11-28T11:32:54.294Z,8.2
2018-11-28T11:33:54.161Z,8.18
2018-11-28T11:34:53.900Z,8.28
2018-11-28T11:35:54.125Z,8.25
2018-11-28T11:36:54.367Z,8.21
2018-11-28T11:37:54.089Z,8.29
2018-11-28T11:38:53.827Z,8.25
2018-11-28T11:39:54.302Z,8.29
2018-11-28T11:40:54.292Z,8.26
2018-11-28T11:41:54.283Z,8.33
2018-11-28T11:42:54.272Z,8.26
2018-11-28T11:43:53.994Z,8.35
2018-11-28T11:44:54.208Z,8.35
2018-11-28T11:45:54.213Z,8.28
2018-11-28T11:46:54.006Z,8.25
2018-11-28T11:47:54.169Z,8.33
2018-11-28T11:48:54.152Z,8.29
2018-11-28T11:49:53.882Z,8.32
2018-11-28T11:50:53.861Z,8.35
2018-11-28T11:51:53.848Z,8.32
2018-11-28T11:52:53.869Z,8.32
2018-11-28T11:53:53.799Z,8.35
2018-11-28T11:54:54.032Z,8.33
2018-11-28T11:55:54.011Z,8.44
2018-11-28T11:56:53.749Z,8.35
2018-11-28T11:57:53.989Z,8.29
2018-11-28T11:58:53.964Z,8.36
2018-11-28T11:59:53.693Z,8.37
2018-11-28T12:00:53.698Z,8.45
2018-11-28T12:01:59.542Z,8.45
2018-11-28T12:02:53.635Z,8.48
2018-11-28T12:03:53.875Z,8.44
2018-11-28T12:04:53.852Z,8.5
2018-11-28T12:05:53.841Z,8.54
2018-11-28T12:06:53.873Z,8.6
2018-11-28T12:07:53.794Z,8.62
2018-11-28T12:08:53.797Z,8.63
2018-11-28T12:09:53.511Z,8.62
2018-11-28T12:10:53.491Z,8.69
2018-11-28T12:11:53.474Z,8.65
2018-11-28T12:12:56.590Z,8.66
2018-11-28T12:13:53.701Z,8.68
2018-11-28T12:14:53.682Z,8.73
2018-11-28T12:15:53.202Z,8.75
2018-11-28T12:16:53.386Z,8.69
2018-11-28T12:17:53.117Z,8.73
2018-11-28T12:18:53.357Z,8.73
2018-11-28T12:19:53.583Z,8.72
2018-11-28T12:20:53.083Z,8.73
2018-11-28T12:21:53.604Z,8.72
2018-11-28T12:22:53.287Z,8.72
2018-11-28T12:23:53.328Z,8.72
2018-11-28T12:24:53.487Z,8.71
2018-11-28T12:25:53.227Z,8.71
2018-11-28T12:26:53.205Z,8.73
2018-11-28T12:27:53.209Z,8.76
2018-11-28T12:28:53.055Z,8.75
2018-11-28T12:29:53.422Z,8.73
2018-11-28T12:30:52.884Z,8.79
2018-11-28T12:31:53.137Z,8.79
2018-11-28T12:32:53.126Z,8.79
2018-11-28T12:33:53.151Z,8.81
2018-11-28T12:34:55.439Z,8.83
2018-11-28T12:35:53.395Z,8.84
2018-11-28T12:36:53.054Z,8.88
2018-11-28T12:37:53.087Z,8.9
2018-11-28T12:38:52.851Z,8.87
2018-11-28T12:39:53.347Z,8.96
2018-11-28T12:40:53.097Z,8.91
2018-11-28T12:41:53.252Z,8.86
2018-11-28T12:42:53.256Z,8.83
2018-11-28T12:43:53.030Z,8.87
2018-11-28T12:44:52.896Z,8.86
2018-11-28T12:45:52.923Z,8.86
2018-11-28T12:46:52.847Z,8.84
2018-11-28T12:47:52.969Z,8.83
2018-11-28T12:48:53.090Z,8.88
2018-11-28T12:49:53.214Z,8.79
2018-11-28T12:50:53.072Z,8.75
2018-11-28T12:51:52.813Z,8.81
2018-11-28T12:52:52.748Z,8.9
2018-11-28T12:53:52.807Z,8.9
2018-11-28T12:54:52.738Z,8.93
2018-11-28T12:55:52.731Z,8.94
2018-11-28T12:56:52.752Z,8.86
2018-11-28T12:57:52.703Z,8.93
2018-11-28T12:58:52.977Z,8.96
2018-11-28T12:59:53.011Z,8.91
2018-11-28T13:00:53.001Z,8.94
2018-11-28T13:01:52.657Z,8.94
2018-11-28T13:02:52.601Z,8.97
2018-11-28T13:03:52.703Z,9.02
2018-11-28T13:04:52.317Z,9.02
2018-11-28T13:05:52.303Z,9.09
2018-11-28T13:06:52.842Z,9.04
2018-11-28T13:07:52.834Z,9.06
2018-11-28T13:08:52.694Z,9.01
2018-11-28T13:09:52.728Z,9.02
2018-11-28T13:10:52.528Z,9.06
2018-11-28T13:11:52.398Z,9.06
2018-11-28T13:12:52.518Z,9.01
2018-11-28T13:13:52.438Z,9.06
2018-11-28T13:14:52.207Z,9.16
2018-11-28T13:15:52.701Z,9.13
2018-11-28T13:16:52.562Z,9.16
2018-11-28T13:17:52.558Z,9.23
2018-11-28T13:18:52.536Z,9.16
2018-11-28T13:19:52.630Z,9.13
2018-11-28T13:20:52.590Z,9.21